Los Luceros, New Mexico
Current Conditions -  °F | °C
As of 1:15 PM on Thursday 30 Oct 2014 (Local Time) from KLAM Reporting Station
Clear Clear  
Wind Chill: 62°   Ceiling: Unl
Heat Index: 62°   Visibility: 10mi
Dew Point: 12°   Wind: 7mph
Humidity: 14%   Direction: 200°SSW
Pressure: 30.4"   Gusts: NA
Location:  36.1112°N, 106.046°W
Report Text: KLAM 301915Z AUTO 20006KT 10SM CLR 17/M11 A3040 RMK AO2 T01651112
Loading
Personal Weather Stations






























Interactive Weather Map
Tropical Storm Tracking
New forecast layout! Learn more

10-Day Weather Forecast

Advertisements
Track Severe Weather on mobile